Time;durP1;ratioP1;P1;durP2;ratioP2;P2;SDS_P1;SDS_P2;PMS_P1;PMS_P2;Temp;Humidity;BMP_temperature;BMP_pressure;BME280_temperature;BME280_humidity;BME280_pressure;Samples;Min_cycle;Max_cycle;Signal;HPM_P1;HPM_P2
2022/05/21 00:01:08;;;;;;;;;;;12.70;99.90;;;;;;8415099;28;19924;-74
2022/05/21 00:05:09;;;;;;;;;;;12.70;99.90;;;;;;8414193;28;19971;-74
2022/05/21 00:09:11;;;;;;;;;;;12.70;99.90;;;;;;8386524;28;19969;-74
2022/05/21 00:13:13;;;;;;;;;;;12.70;99.90;;;;;;8413648;28;19928;-74
2022/05/21 00:17:14;;;;;;;;;;;12.80;99.90;;;;;;8396529;28;20296;-73
2022/05/21 00:21:16;;;;;;;;;;;12.80;99.90;;;;;;8405161;28;20379;-74
2022/05/21 00:25:18;;;;;;;;;;;12.80;99.90;;;;;;8402044;28;19927;-75
2022/05/21 00:29:20;;;;;;;;;;;12.80;99.90;;;;;;8399855;28;19931;-74
2022/05/21 00:33:22;;;;;;;;;;;12.80;99.90;;;;;;8417553;28;20026;-74
2022/05/21 00:37:24;;;;;;;;;;;12.80;99.90;;;;;;8399725;28;19920;-74
2022/05/21 00:41:25;;;;;;;;;;;12.90;99.90;;;;;;8411870;28;19920;-74
2022/05/21 00:45:27;;;;;;;;;;;12.80;99.90;;;;;;8379364;28;19927;-75
2022/05/21 00:49:31;;;;;;;;;;;12.90;99.90;;;;;;8410670;28;19937;-74
2022/05/21 00:53:33;;;;;;;;;;;13.00;99.90;;;;;;8397935;28;19920;-74
2022/05/21 00:57:36;;;;;;;;;;;12.90;99.90;;;;;;8411022;28;19980;-74
2022/05/21 01:01:41;;;;;;;;;;;13.00;99.90;;;;;;8405599;28;19931;-74
2022/05/21 01:05:44;;;;;;;;;;;12.90;99.90;;;;;;8404815;28;20431;-75
2022/05/21 01:09:50;;;;;;;;;;;13.00;99.90;;;;;;8396447;28;20349;-74
2022/05/21 01:13:51;;;;;;;;;;;13.00;99.90;;;;;;8422672;28;20049;-74
2022/05/21 01:17:53;;;;;;;;;;;13.00;99.90;;;;;;8406661;28;20287;-74
2022/05/21 01:21:55;;;;;;;;;;;13.00;99.90;;;;;;8405657;28;20412;-74
2022/05/21 01:25:57;;;;;;;;;;;13.00;99.90;;;;;;8391267;28;19921;-74
2022/05/21 01:30:01;;;;;;;;;;;13.00;99.90;;;;;;8410068;28;19920;-74
2022/05/21 01:34:03;;;;;;;;;;;13.00;99.90;;;;;;8397511;28;20292;-74
2022/05/21 01:38:05;;;;;;;;;;;13.00;99.90;;;;;;8407739;28;20372;-74
2022/05/21 01:42:07;;;;;;;;;;;13.00;99.90;;;;;;8410928;28;19920;-73
2022/05/21 01:46:09;;;;;;;;;;;13.10;99.90;;;;;;8399017;28;19920;-74
2022/05/21 01:50:11;;;;;;;;;;;13.10;99.90;;;;;;8398559;28;20276;-74
2022/05/21 01:54:12;;;;;;;;;;;13.00;99.90;;;;;;8400405;28;19940;-74
2022/05/21 01:58:14;;;;;;;;;;;13.10;99.90;;;;;;8406463;28;19936;-74
2022/05/21 02:02:16;;;;;;;;;;;13.10;99.90;;;;;;8399816;28;19923;-73
2022/05/21 02:06:18;;;;;;;;;;;13.00;99.90;;;;;;8388673;28;20242;-73
2022/05/21 02:10:21;;;;;;;;;;;13.10;99.90;;;;;;8393655;28;19920;-73
2022/05/21 02:14:23;;;;;;;;;;;13.10;99.90;;;;;;8391165;28;19944;-74
2022/05/21 02:18:25;;;;;;;;;;;13.10;99.90;;;;;;8417123;28;19947;-74
2022/05/21 02:22:27;;;;;;;;;;;13.10;99.90;;;;;;8391148;28;19951;-75
2022/05/21 02:26:32;;;;;;;;;;;13.10;99.90;;;;;;8400676;28;19927;-74
2022/05/21 02:30:34;;;;;;;;;;;13.10;99.90;;;;;;8400002;28;20006;-74
2022/05/21 02:34:35;;;;;;;;;;;13.10;99.90;;;;;;8415938;28;19924;-75
2022/05/21 02:42:58;;;;;;;;;;;13.10;99.90;;;;;;8399620;28;19930;-74
2022/05/21 02:46:59;;;;;;;;;;;13.20;99.90;;;;;;8392029;28;19928;-74
2022/05/21 02:51:01;;;;;;;;;;;13.10;99.90;;;;;;8396083;28;20311;-75
2022/05/21 02:55:04;;;;;;;;;;;13.10;99.90;;;;;;8410959;28;19920;-75
2022/05/21 02:59:06;;;;;;;;;;;13.10;99.90;;;;;;8390039;28;19920;-75
2022/05/21 03:03:08;;;;;;;;;;;13.10;99.90;;;;;;8399947;28;19920;-75
2022/05/21 03:07:10;;;;;;;;;;;13.20;99.90;;;;;;8395970;28;19920;-75
2022/05/21 03:11:11;;;;;;;;;;;13.20;99.90;;;;;;8396713;28;19936;-75
2022/05/21 03:15:13;;;;;;;;;;;13.20;99.90;;;;;;8407763;28;20282;-75
2022/05/21 03:19:14;;;;;;;;;;;13.20;99.90;;;;;;8393434;28;19920;-75
2022/05/21 03:23:16;;;;;;;;;;;13.20;99.90;;;;;;8403508;28;19920;-75
2022/05/21 03:27:39;;;;;;;;;;;13.10;99.90;;;;;;8406765;28;19920;-76
2022/05/21 03:31:41;;;;;;;;;;;13.10;99.90;;;;;;8412657;28;19931;-75
2022/05/21 03:35:43;;;;;;;;;;;13.10;99.90;;;;;;8405467;28;20328;-75
2022/05/21 03:39:44;;;;;;;;;;;13.10;99.90;;;;;;8403363;28;19920;-76
2022/05/21 03:43:46;;;;;;;;;;;13.00;99.90;;;;;;8391581;28;19928;-76
2022/05/21 03:47:57;;;;;;;;;;;13.00;99.90;;;;;;8393986;28;19921;-76
2022/05/21 03:51:59;;;;;;;;;;;13.00;99.90;;;;;;8400440;28;19920;-76
2022/05/21 03:56:00;;;;;;;;;;;12.90;99.90;;;;;;8404171;28;19925;-75
2022/05/21 04:00:06;;;;;;;;;;;13.00;99.90;;;;;;8391002;28;19927;-75
2022/05/21 04:04:08;;;;;;;;;;;13.00;99.90;;;;;;8427773;27;19920;-75
2022/05/21 04:08:10;;;;;;;;;;;12.90;99.90;;;;;;8419989;27;19920;-76
2022/05/21 04:12:11;;;;;;;;;;;12.90;99.90;;;;;;8410760;28;19931;-76
2022/05/21 04:16:13;;;;;;;;;;;12.90;99.90;;;;;;8404802;28;20496;-75
2022/05/21 04:20:16;;;;;;;;;;;12.90;99.90;;;;;;8402883;28;19923;-75
2022/05/21 04:24:18;;;;;;;;;;;12.90;99.90;;;;;;8393281;28;19928;-75
2022/05/21 04:28:20;;;;;;;;;;;13.00;99.90;;;;;;8407907;28;19920;-75
2022/05/21 04:32:22;;;;;;;;;;;13.00;99.90;;;;;;8412521;28;19940;-74
2022/05/21 04:36:23;;;;;;;;;;;13.00;99.90;;;;;;8390380;28;19943;-74
2022/05/21 04:40:25;;;;;;;;;;;13.10;99.90;;;;;;8397130;28;19920;-74
2022/05/21 04:44:31;;;;;;;;;;;13.10;99.90;;;;;;8397419;28;19931;-74
2022/05/21 04:48:32;;;;;;;;;;;13.20;99.90;;;;;;8429968;28;19983;-75
2022/05/21 04:52:35;;;;;;;;;;;13.20;99.90;;;;;;8402992;28;20238;-74
2022/05/21 04:56:37;;;;;;;;;;;13.20;99.90;;;;;;8411904;28;20309;-75
2022/05/21 05:01:04;;;;;;;;;;;13.30;99.90;;;;;;8382703;28;19989;-74
2022/05/21 05:05:06;;;;;;;;;;;13.30;99.90;;;;;;8382572;28;20303;-74
2022/05/21 05:09:09;;;;;;;;;;;13.40;99.90;;;;;;8407527;28;20000;-74
2022/05/21 05:13:11;;;;;;;;;;;13.40;99.90;;;;;;8410227;28;20369;-74
2022/05/21 05:17:13;;;;;;;;;;;13.50;99.90;;;;;;8380881;28;20282;-74
2022/05/21 05:21:15;;;;;;;;;;;13.50;99.90;;;;;;8374469;28;19921;-75
2022/05/21 05:25:16;;;;;;;;;;;13.60;99.90;;;;;;8382554;28;19949;-74
2022/05/21 05:29:18;;;;;;;;;;;13.60;99.90;;;;;;8397596;28;19928;-74
2022/05/21 05:33:20;;;;;;;;;;;13.70;99.90;;;;;;8380297;28;19928;-74
2022/05/21 05:37:22;;;;;;;;;;;13.70;99.90;;;;;;8414603;28;20257;-74
2022/05/21 05:41:23;;;;;;;;;;;13.80;99.90;;;;;;8386156;28;19920;-75
2022/05/21 05:45:27;;;;;;;;;;;13.80;99.90;;;;;;8388003;28;19920;-74
2022/05/21 05:49:28;;;;;;;;;;;13.90;99.90;;;;;;8386450;28;19960;-74
2022/05/21 05:53:30;;;;;;;;;;;14.00;99.90;;;;;;8401556;28;19920;-74
2022/05/21 05:57:32;;;;;;;;;;;14.00;99.90;;;;;;8409899;28;19924;-74
2022/05/21 06:01:34;;;;;;;;;;;14.10;99.90;;;;;;8391942;28;19932;-74
2022/05/21 06:05:35;;;;;;;;;;;14.10;99.90;;;;;;8393950;28;19919;-74
2022/05/21 06:09:37;;;;;;;;;;;14.20;99.90;;;;;;8417680;28;19946;-74
2022/05/21 06:13:39;;;;;;;;;;;14.30;99.90;;;;;;8393907;28;20329;-74
2022/05/21 06:17:40;;;;;;;;;;;14.30;99.90;;;;;;8385811;28;19947;-74
2022/05/21 06:21:42;;;;;;;;;;;14.30;99.90;;;;;;8399217;28;19924;-75
2022/05/21 06:25:44;;;;;;;;;;;14.40;99.90;;;;;;8400744;28;19924;-74
2022/05/21 06:29:46;;;;;;;;;;;14.40;99.90;;;;;;8441211;27;20349;-74
2022/05/21 06:33:48;;;;;;;;;;;14.50;99.90;;;;;;8404492;28;19928;-74
2022/05/21 06:37:49;;;;;;;;;;;14.50;99.90;;;;;;8385358;28;19946;-74
2022/05/21 06:41:51;;;;;;;;;;;14.50;99.90;;;;;;8405678;28;19939;-74
2022/05/21 06:45:52;;;;;;;;;;;14.50;99.90;;;;;;8379085;28;19924;-74
2022/05/21 06:49:55;;;;;;;;;;;14.70;99.90;;;;;;8396861;28;19920;-74
2022/05/21 06:53:57;;;;;;;;;;;14.70;99.90;;;;;;8405438;28;19920;-74
2022/05/21 06:57:58;;;;;;;;;;;14.80;99.90;;;;;;8402832;28;19920;-74
2022/05/21 07:02:00;;;;;;;;;;;14.90;99.90;;;;;;8382656;28;19927;-73
2022/05/21 07:10:26;;;;;;;;;;;15.00;99.90;;;;;;8393325;28;19920;-74
2022/05/21 07:14:28;;;;;;;;;;;15.00;99.90;;;;;;8418080;28;19920;-74
2022/05/21 07:18:29;;;;;;;;;;;15.10;99.90;;;;;;8383744;28;20365;-74
2022/05/21 07:22:31;;;;;;;;;;;15.10;99.90;;;;;;8402417;28;19921;-74
2022/05/21 07:26:33;;;;;;;;;;;15.20;99.90;;;;;;8416130;27;19967;-74
2022/05/21 07:30:35;;;;;;;;;;;15.20;99.90;;;;;;8393188;28;20313;-75
2022/05/21 07:34:37;;;;;;;;;;;15.30;99.90;;;;;;8402394;28;19919;-75
2022/05/21 07:38:38;;;;;;;;;;;15.30;99.90;;;;;;8399877;28;19920;-74
2022/05/21 07:42:40;;;;;;;;;;;15.40;99.90;;;;;;8400854;28;20449;-73
2022/05/21 07:46:42;;;;;;;;;;;15.50;99.90;;;;;;8405459;28;19927;-73
2022/05/21 07:50:45;;;;;;;;;;;15.60;99.90;;;;;;8399291;28;19931;-73
2022/05/21 07:54:47;;;;;;;;;;;15.70;99.90;;;;;;8404339;28;20275;-74
2022/05/21 07:58:49;;;;;;;;;;;15.90;99.90;;;;;;8430325;27;20288;-74
2022/05/21 08:02:51;;;;;;;;;;;15.90;99.90;;;;;;8419491;28;19924;-73
2022/05/21 08:06:52;;;;;;;;;;;15.90;99.90;;;;;;8393892;28;19936;-73
2022/05/21 08:10:55;;;;;;;;;;;15.90;99.90;;;;;;8384020;28;19955;-74
2022/05/21 08:14:56;;;;;;;;;;;15.90;99.90;;;;;;8381283;28;19925;-73
2022/05/21 08:18:58;;;;;;;;;;;15.80;99.90;;;;;;8386201;28;20295;-73
2022/05/21 08:27:23;;;;;;;;;;;15.90;99.90;;;;;;8380439;28;19921;-74
2022/05/21 08:31:25;;;;;;;;;;;15.90;99.90;;;;;;8416721;27;19920;-74
2022/05/21 08:35:26;;;;;;;;;;;15.90;99.90;;;;;;8381383;28;19981;-73
2022/05/21 08:39:28;;;;;;;;;;;16.00;99.90;;;;;;8383840;28;19928;-73
2022/05/21 08:43:35;;;;;;;;;;;16.00;99.90;;;;;;8385611;28;19931;-74
2022/05/21 08:47:37;;;;;;;;;;;16.00;99.90;;;;;;8379465;28;20003;-74
2022/05/21 08:51:44;;;;;;;;;;;16.00;99.90;;;;;;8382637;28;19921;-74
2022/05/21 08:55:52;;;;;;;;;;;15.90;99.90;;;;;;8402258;28;19925;-74
2022/05/21 09:00:01;;;;;;;;;;;16.00;99.90;;;;;;8381226;28;19924;-74
2022/05/21 09:04:03;;;;;;;;;;;16.00;99.90;;;;;;8376976;28;19924;-74
2022/05/21 09:08:08;;;;;;;;;;;16.00;99.90;;;;;;8380755;28;19920;-74
2022/05/21 09:12:09;;;;;;;;;;;16.00;99.90;;;;;;8379963;28;19935;-73
2022/05/21 09:20:35;;;;;;;;;;;16.10;99.90;;;;;;8388264;28;19928;-74
2022/05/21 09:24:39;;;;;;;;;;;16.30;99.90;;;;;;8384286;28;19928;-74
2022/05/21 09:28:41;;;;;;;;;;;16.40;99.90;;;;;;8387663;28;20363;-74
2022/05/21 09:32:46;;;;;;;;;;;16.30;99.90;;;;;;8387471;28;19947;-74
2022/05/21 09:36:48;;;;;;;;;;;16.30;99.90;;;;;;8387907;28;20041;-74
2022/05/21 09:41:02;;;;;;;;;;;16.40;99.90;;;;;;8386739;28;19920;-73
2022/05/21 09:45:27;;;;;;;;;;;16.40;99.90;;;;;;8378358;28;19931;-74
2022/05/21 09:49:29;;;;;;;;;;;16.40;99.90;;;;;;8387098;28;19931;-73
2022/05/21 09:53:43;;;;;;;;;;;16.40;99.90;;;;;;8384674;28;19935;-73
2022/05/21 09:57:45;;;;;;;;;;;16.40;99.90;;;;;;8383178;28;19927;-74
2022/05/21 10:01:48;;;;;;;;;;;16.40;99.90;;;;;;8389477;28;19920;-74
2022/05/21 10:05:52;;;;;;;;;;;16.50;99.90;;;;;;8387110;28;20269;-74
2022/05/21 10:14:19;;;;;;;;;;;16.70;99.90;;;;;;8366336;28;19924;-74
2022/05/21 10:18:38;;;;;;;;;;;16.80;99.90;;;;;;8382345;28;19920;-74
2022/05/21 10:22:43;;;;;;;;;;;16.90;99.90;;;;;;8386778;28;20179;-74
2022/05/21 10:27:20;;;;;;;;;;;17.00;99.90;;;;;;8382249;28;19920;-74
2022/05/21 10:31:29;;;;;;;;;;;17.00;99.90;;;;;;8323244;28;19927;-73
2022/05/21 10:35:36;;;;;;;;;;;17.10;99.90;;;;;;8377263;28;20410;-74
2022/05/21 10:39:56;;;;;;;;;;;17.00;99.90;;;;;;8380682;28;19927;-74
2022/05/21 10:44:01;;;;;;;;;;;17.00;99.90;;;;;;8369710;28;19920;-74
2022/05/21 10:48:27;;;;;;;;;;;17.00;99.90;;;;;;8387202;28;19924;-74
2022/05/21 10:52:29;;;;;;;;;;;17.10;99.90;;;;;;8385221;28;19935;-74
2022/05/21 10:56:49;;;;;;;;;;;17.20;99.90;;;;;;8383408;28;19920;-74
2022/05/21 11:00:59;;;;;;;;;;;17.10;99.90;;;;;;8379979;28;19928;-74
2022/05/21 11:05:27;;;;;;;;;;;17.20;99.90;;;;;;8383216;28;20375;-74
2022/05/21 11:09:42;;;;;;;;;;;17.10;99.90;;;;;;8384964;28;19931;-74
2022/05/21 11:13:57;;;;;;;;;;;17.20;99.90;;;;;;8384435;28;19928;-74
2022/05/21 11:18:13;;;;;;;;;;;17.20;99.90;;;;;;8382142;28;19928;-74
2022/05/21 11:22:19;;;;;;;;;;;17.30;99.90;;;;;;8383336;28;19920;-74
2022/05/21 11:26:37;;;;;;;;;;;17.30;99.90;;;;;;8380098;28;19928;-74
2022/05/21 11:30:39;;;;;;;;;;;17.40;99.90;;;;;;8379017;28;20031;-74
2022/05/21 11:39:20;;;;;;;;;;;17.30;99.90;;;;;;8377866;28;19928;-74
2022/05/21 11:43:21;;;;;;;;;;;17.30;99.90;;;;;;8383478;28;19920;-74
2022/05/21 11:47:26;;;;;;;;;;;17.40;99.90;;;;;;8395407;28;20316;-75
2022/05/21 11:51:28;;;;;;;;;;;17.50;99.90;;;;;;8380882;28;19932;-74
2022/05/21 11:55:32;;;;;;;;;;;17.70;99.90;;;;;;8382328;28;19924;-74
2022/05/21 12:00:03;;;;;;;;;;;17.80;99.90;;;;;;8375935;28;19932;-74
2022/05/21 12:04:05;;;;;;;;;;;17.80;99.90;;;;;;8340627;28;19928;-74
2022/05/21 12:08:13;;;;;;;;;;;17.70;99.90;;;;;;8383497;28;19920;-74
2022/05/21 12:12:18;;;;;;;;;;;17.50;99.90;;;;;;8386036;28;19954;-73
2022/05/21 12:16:32;;;;;;;;;;;17.50;99.90;;;;;;8412723;27;20236;-74
2022/05/21 12:20:44;;;;;;;;;;;17.50;99.90;;;;;;8417185;27;19999;-74
2022/05/21 12:24:46;;;;;;;;;;;17.70;99.90;;;;;;8413562;27;19951;-74
2022/05/21 12:28:51;;;;;;;;;;;17.80;99.90;;;;;;8386485;28;20370;-74
2022/05/21 12:32:52;;;;;;;;;;;17.80;99.90;;;;;;8416153;28;19926;-73
2022/05/21 12:36:59;;;;;;;;;;;17.90;99.90;;;;;;8384451;28;19924;-74
2022/05/21 12:41:13;;;;;;;;;;;18.00;99.90;;;;;;8384819;28;19924;-73
2022/05/21 12:45:33;;;;;;;;;;;18.10;99.90;;;;;;8383687;28;19931;-74
2022/05/21 12:49:36;;;;;;;;;;;18.20;99.90;;;;;;8384747;28;19932;-74
2022/05/21 12:53:42;;;;;;;;;;;18.20;99.90;;;;;;8392514;28;20463;-75
2022/05/21 12:57:44;;;;;;;;;;;18.30;99.90;;;;;;8388317;28;20032;-74
2022/05/21 13:01:57;;;;;;;;;;;18.40;99.90;;;;;;8388629;28;19931;-76
2022/05/21 13:06:03;;;;;;;;;;;18.50;99.90;;;;;;8389519;28;20399;-75
2022/05/21 13:10:05;;;;;;;;;;;18.50;99.90;;;;;;8392270;28;19924;-74
2022/05/21 13:14:10;;;;;;;;;;;18.60;99.90;;;;;;8379723;28;20439;-75
2022/05/21 13:18:12;;;;;;;;;;;18.60;99.90;;;;;;8387954;28;19920;-73
2022/05/21 13:22:43;;;;;;;;;;;18.50;99.90;;;;;;8389122;28;20462;-74
2022/05/21 13:27:00;;;;;;;;;;;18.60;99.90;;;;;;8370583;28;19928;-74
2022/05/21 13:31:14;;;;;;;;;;;18.70;99.90;;;;;;8384539;28;19920;-74
2022/05/21 13:35:26;;;;;;;;;;;18.70;99.90;;;;;;8386621;28;20011;-75
2022/05/21 13:39:32;;;;;;;;;;;18.70;99.90;;;;;;8391207;28;19921;-75
2022/05/21 13:43:37;;;;;;;;;;;18.60;99.90;;;;;;8379619;28;19920;-74
2022/05/21 13:47:45;;;;;;;;;;;18.50;99.90;;;;;;8379983;28;19978;-74
2022/05/21 13:51:48;;;;;;;;;;;18.50;99.90;;;;;;8390142;28;19921;-74
2022/05/21 13:55:56;;;;;;;;;;;18.40;99.90;;;;;;8378168;28;20388;-74
2022/05/21 14:00:03;;;;;;;;;;;18.30;99.90;;;;;;8409781;27;19927;-74
2022/05/21 14:04:29;;;;;;;;;;;18.30;99.90;;;;;;8380069;28;19983;-74
2022/05/21 14:08:33;;;;;;;;;;;18.30;99.90;;;;;;8387565;28;19927;-74
2022/05/21 14:12:40;;;;;;;;;;;18.40;99.90;;;;;;8383887;28;20506;-74
2022/05/21 14:16:43;;;;;;;;;;;18.50;99.90;;;;;;8376221;28;20284;-74
2022/05/21 14:20:56;;;;;;;;;;;18.60;99.90;;;;;;8384364;28;19935;-74
2022/05/21 14:25:19;;;;;;;;;;;18.70;99.90;;;;;;8385928;28;19967;-74
2022/05/21 14:29:30;;;;;;;;;;;18.70;99.90;;;;;;8416105;27;19935;-74
2022/05/21 14:33:31;;;;;;;;;;;18.70;99.90;;;;;;8382960;28;20679;-75
2022/05/21 14:37:33;;;;;;;;;;;18.70;99.90;;;;;;8378149;28;19925;-74
2022/05/21 14:41:37;;;;;;;;;;;18.70;99.90;;;;;;8372894;28;19936;-75
2022/05/21 14:45:38;;;;;;;;;;;18.80;99.90;;;;;;8379707;28;20228;-75
2022/05/21 14:49:40;;;;;;;;;;;18.80;99.90;;;;;;8381721;28;20038;-74
2022/05/21 14:53:44;;;;;;;;;;;18.70;99.90;;;;;;8382421;28;19920;-74
2022/05/21 14:57:49;;;;;;;;;;;18.80;99.90;;;;;;8376984;28;20004;-74
2022/05/21 15:01:53;;;;;;;;;;;18.90;99.90;;;;;;8380742;28;19921;-74
2022/05/21 15:05:54;;;;;;;;;;;19.00;99.90;;;;;;8382450;28;20398;-74
2022/05/21 15:09:56;;;;;;;;;;;18.90;99.90;;;;;;8376787;28;19928;-74
2022/05/21 15:13:58;;;;;;;;;;;18.90;99.90;;;;;;8381061;28;19925;-75
2022/05/21 15:17:59;;;;;;;;;;;19.10;99.90;;;;;;8382941;28;19927;-74
2022/05/21 15:22:02;;;;;;;;;;;19.10;99.90;;;;;;8380007;28;19924;-74
2022/05/21 15:26:03;;;;;;;;;;;19.00;99.90;;;;;;8412899;27;19928;-75
2022/05/21 15:30:06;;;;;;;;;;;18.80;99.90;;;;;;8375315;28;19920;-75
2022/05/21 15:34:08;;;;;;;;;;;18.70;99.90;;;;;;8379291;28;20319;-75
2022/05/21 15:38:10;;;;;;;;;;;18.60;99.90;;;;;;8384017;28;19931;-74
2022/05/21 15:42:12;;;;;;;;;;;18.70;99.90;;;;;;8376291;28;19934;-74
2022/05/21 15:46:13;;;;;;;;;;;18.70;99.90;;;;;;8387222;28;19951;-74
2022/05/21 15:50:16;;;;;;;;;;;18.80;99.90;;;;;;8386476;28;19924;-74
2022/05/21 15:54:19;;;;;;;;;;;19.00;99.90;;;;;;8379834;28;19935;-74
2022/05/21 15:58:21;;;;;;;;;;;19.20;99.90;;;;;;8384762;28;19931;-75
2022/05/21 16:02:24;;;;;;;;;;;19.60;99.90;;;;;;8384372;28;19920;-74
2022/05/21 16:06:26;;;;;;;;;;;20.10;99.90;;;;;;8382218;28;19924;-74
2022/05/21 16:10:29;;;;;;;;;;;20.70;99.90;;;;;;8381812;28;19920;-75
2022/05/21 16:14:31;;;;;;;;;;;20.70;99.90;;;;;;8384414;28;19925;-75
2022/05/21 16:18:32;;;;;;;;;;;20.50;99.90;;;;;;8381419;28;20352;-74
2022/05/21 16:22:34;;;;;;;;;;;20.10;99.90;;;;;;8383655;28;20288;-75
2022/05/21 16:30:58;;;;;;;;;;;19.50;99.90;;;;;;8366670;28;19928;-74
2022/05/21 16:35:00;;;;;;;;;;;19.40;99.90;;;;;;8380328;28;19919;-75
2022/05/21 16:39:02;;;;;;;;;;;19.40;99.90;;;;;;8377181;28;21127;-75
2022/05/21 16:43:04;;;;;;;;;;;19.50;99.90;;;;;;8380791;28;19920;-75
2022/05/21 16:47:06;;;;;;;;;;;19.60;99.90;;;;;;8380558;28;20015;-75
2022/05/21 16:51:08;;;;;;;;;;;19.70;99.90;;;;;;8375240;28;19924;-75
2022/05/21 16:55:10;;;;;;;;;;;19.80;99.90;;;;;;8384015;28;19924;-75
2022/05/21 16:59:13;;;;;;;;;;;19.80;99.90;;;;;;8383220;28;20398;-75
2022/05/21 17:03:14;;;;;;;;;;;20.00;99.90;;;;;;8386932;28;19968;-75
2022/05/21 17:07:16;;;;;;;;;;;20.30;99.90;;;;;;8382305;28;19935;-75
2022/05/21 17:11:18;;;;;;;;;;;20.40;99.90;;;;;;8382390;28;19931;-75
2022/05/21 17:15:19;;;;;;;;;;;20.20;99.90;;;;;;8382196;28;19932;-75
2022/05/21 17:19:21;;;;;;;;;;;20.10;99.90;;;;;;8390216;28;19924;-75
2022/05/21 17:23:23;;;;;;;;;;;20.00;99.90;;;;;;8380433;28;20408;-75
2022/05/21 17:31:45;;;;;;;;;;;19.90;99.90;;;;;;8381305;28;19920;-75
2022/05/21 17:35:49;;;;;;;;;;;20.00;99.90;;;;;;8381981;28;19928;-75
2022/05/21 17:39:50;;;;;;;;;;;20.00;99.90;;;;;;8385030;28;19931;-75
2022/05/21 17:43:52;;;;;;;;;;;20.00;99.90;;;;;;8384776;28;19927;-75
2022/05/21 17:47:54;;;;;;;;;;;20.00;99.90;;;;;;8390191;28;20383;-75
2022/05/21 17:51:55;;;;;;;;;;;19.90;99.90;;;;;;8387576;28;19982;-75
2022/05/21 17:55:59;;;;;;;;;;;19.70;99.90;;;;;;8387943;28;19928;-75
2022/05/21 18:00:01;;;;;;;;;;;19.60;99.90;;;;;;8392349;28;19924;-75
2022/05/21 18:04:03;;;;;;;;;;;19.40;99.90;;;;;;8388211;28;19920;-76
2022/05/21 18:08:05;;;;;;;;;;;19.40;99.90;;;;;;8387964;28;19921;-74
2022/05/21 18:12:08;;;;;;;;;;;19.40;99.90;;;;;;8389277;28;19924;-75
2022/05/21 18:20:29;;;;;;;;;;;19.60;99.90;;;;;;8383836;28;19966;-75
2022/05/21 18:24:31;;;;;;;;;;;19.70;99.90;;;;;;8382176;28;19920;-75
2022/05/21 18:28:33;;;;;;;;;;;19.60;99.90;;;;;;8388554;28;19927;-75
2022/05/21 18:32:35;;;;;;;;;;;19.40;99.90;;;;;;8388254;28;19932;-75
2022/05/21 18:36:37;;;;;;;;;;;19.20;99.90;;;;;;8388157;28;19931;-75
2022/05/21 18:40:39;;;;;;;;;;;19.10;99.90;;;;;;8386298;28;19959;-74
2022/05/21 18:44:41;;;;;;;;;;;18.90;99.90;;;;;;8383182;28;20288;-75
2022/05/21 18:48:43;;;;;;;;;;;18.80;99.90;;;;;;8380581;28;20330;-75
2022/05/21 18:52:44;;;;;;;;;;;18.70;99.90;;;;;;8384345;28;19924;-75
2022/05/21 18:56:46;;;;;;;;;;;18.60;99.90;;;;;;8377071;28;20280;-75
2022/05/21 19:00:49;;;;;;;;;;;18.60;99.90;;;;;;8383990;28;19928;-76
2022/05/21 19:04:52;;;;;;;;;;;18.50;99.90;;;;;;8386133;28;19931;-76
2022/05/21 19:08:54;;;;;;;;;;;18.50;99.90;;;;;;8417267;27;20292;-75
2022/05/21 19:12:55;;;;;;;;;;;18.50;99.90;;;;;;8383754;28;19935;-75
2022/05/21 19:16:57;;;;;;;;;;;18.40;99.90;;;;;;8375873;28;19928;-75
2022/05/21 19:20:59;;;;;;;;;;;18.30;99.90;;;;;;8379355;28;20343;-75
2022/05/21 19:25:01;;;;;;;;;;;18.20;99.90;;;;;;8375654;28;19921;-75
2022/05/21 19:29:02;;;;;;;;;;;18.10;99.90;;;;;;8387497;28;19920;-75
2022/05/21 19:33:04;;;;;;;;;;;18.10;99.90;;;;;;8386685;28;19924;-75
2022/05/21 19:37:10;;;;;;;;;;;17.90;99.90;;;;;;8389051;28;19920;-75
2022/05/21 19:41:12;;;;;;;;;;;17.80;99.90;;;;;;8385619;28;19924;-75
2022/05/21 19:45:14;;;;;;;;;;;17.70;99.90;;;;;;8382276;28;20384;-75
2022/05/21 19:49:16;;;;;;;;;;;17.50;99.90;;;;;;8387494;28;20248;-75
2022/05/21 19:53:18;;;;;;;;;;;17.40;99.90;;;;;;8378682;28;20215;-75
2022/05/21 19:57:40;;;;;;;;;;;17.30;99.90;;;;;;8380018;28;19920;-75
2022/05/21 20:01:42;;;;;;;;;;;17.20;99.90;;;;;;8387822;28;19920;-75
2022/05/21 20:05:44;;;;;;;;;;;17.00;99.90;;;;;;8381643;28;19920;-75
2022/05/21 20:09:45;;;;;;;;;;;16.90;99.90;;;;;;8381762;28;20286;-75
2022/05/21 20:13:47;;;;;;;;;;;16.70;99.90;;;;;;8376977;28;19967;-75
2022/05/21 20:17:49;;;;;;;;;;;16.60;99.90;;;;;;8388695;28;19974;-75
2022/05/21 20:22:11;;;;;;;;;;;16.50;99.90;;;;;;8386939;28;20003;-75
2022/05/21 20:26:14;;;;;;;;;;;16.40;99.90;;;;;;8387046;28;19928;-75
2022/05/21 20:30:17;;;;;;;;;;;16.30;99.90;;;;;;8400236;28;19978;-75
2022/05/21 20:34:19;;;;;;;;;;;16.10;99.90;;;;;;8382068;28;20338;-75
2022/05/21 20:38:21;;;;;;;;;;;16.00;99.90;;;;;;8377765;28;19920;-75
2022/05/21 20:42:23;;;;;;;;;;;16.00;99.90;;;;;;8384481;28;19927;-75
2022/05/21 20:46:24;;;;;;;;;;;15.90;99.90;;;;;;8383493;28;19920;-75
2022/05/21 20:50:26;;;;;;;;;;;15.80;99.90;;;;;;8381269;28;19929;-75
2022/05/21 20:54:28;;;;;;;;;;;15.70;99.90;;;;;;8376965;28;19921;-75
2022/05/21 20:58:34;;;;;;;;;;;15.60;99.90;;;;;;8379844;28;20283;-75
2022/05/21 21:02:36;;;;;;;;;;;15.50;99.90;;;;;;8414375;28;20284;-75
2022/05/21 21:06:38;;;;;;;;;;;15.50;99.90;;;;;;8393029;28;19924;-75
2022/05/21 21:10:40;;;;;;;;;;;15.40;99.90;;;;;;8406215;28;19928;-75
2022/05/21 21:14:42;;;;;;;;;;;15.30;99.90;;;;;;8391359;28;19931;-75
2022/05/21 21:18:44;;;;;;;;;;;15.30;99.90;;;;;;8413728;28;19939;-75
2022/05/21 21:22:46;;;;;;;;;;;15.20;99.90;;;;;;8434014;27;19924;-74
2022/05/21 21:26:48;;;;;;;;;;;15.10;99.90;;;;;;8375000;28;19924;-75
2022/05/21 21:30:49;;;;;;;;;;;15.00;99.90;;;;;;8373524;28;19928;-75
2022/05/21 21:34:51;;;;;;;;;;;14.90;99.90;;;;;;8370610;28;19929;-75
2022/05/21 21:38:53;;;;;;;;;;;14.90;99.90;;;;;;8382567;28;19953;-75
2022/05/21 21:42:55;;;;;;;;;;;14.80;99.90;;;;;;8372326;28;19979;-75
2022/05/21 21:46:57;;;;;;;;;;;14.70;99.90;;;;;;8366719;28;19920;-75
2022/05/21 21:50:58;;;;;;;;;;;14.60;99.90;;;;;;8373170;28;19935;-75
2022/05/21 21:55:01;;;;;;;;;;;14.60;99.90;;;;;;8365796;28;19932;-74
2022/05/21 22:03:23;;;;;;;;;;;14.40;99.90;;;;;;8392735;28;19921;-75
2022/05/21 22:07:25;;;;;;;;;;;14.40;99.90;;;;;;8392034;28;20299;-75
2022/05/21 22:11:27;;;;;;;;;;;14.30;99.90;;;;;;8392092;28;19921;-74
2022/05/21 22:15:29;;;;;;;;;;;14.30;99.90;;;;;;8385067;28;19927;-74
2022/05/21 22:19:40;;;;;;;;;;;14.20;99.90;;;;;;8390786;28;20405;-74
2022/05/21 22:23:42;;;;;;;;;;;14.20;99.90;;;;;;8375952;28;20398;-75
2022/05/21 22:27:43;;;;;;;;;;;14.10;99.90;;;;;;8400044;28;19927;-74
2022/05/21 22:31:45;;;;;;;;;;;14.10;99.90;;;;;;8396582;28;19925;-74
2022/05/21 22:35:47;;;;;;;;;;;14.10;99.90;;;;;;8423160;28;20396;-75
2022/05/21 22:39:48;;;;;;;;;;;14.00;99.90;;;;;;8388359;28;19924;-75
2022/05/21 22:43:50;;;;;;;;;;;13.90;99.90;;;;;;8406703;28;20010;-75
2022/05/21 22:47:52;;;;;;;;;;;13.90;99.90;;;;;;8402653;28;19924;-74
2022/05/21 22:51:54;;;;;;;;;;;13.80;99.90;;;;;;8403668;28;19920;-74
2022/05/21 22:55:56;;;;;;;;;;;13.70;99.90;;;;;;8399975;28;20380;-74
2022/05/21 22:59:57;;;;;;;;;;;13.60;99.90;;;;;;8408005;28;19919;-74
2022/05/21 23:03:59;;;;;;;;;;;13.60;99.90;;;;;;8392818;28;19921;-75
2022/05/21 23:08:01;;;;;;;;;;;13.50;99.90;;;;;;8385311;28;20022;-74
2022/05/21 23:12:03;;;;;;;;;;;13.50;99.90;;;;;;8392915;28;19920;-74
2022/05/21 23:20:26;;;;;;;;;;;13.30;99.90;;;;;;8400972;28;20367;-74
2022/05/21 23:24:28;;;;;;;;;;;13.20;99.90;;;;;;8384318;28;19920;-74
2022/05/21 23:28:29;;;;;;;;;;;13.10;99.90;;;;;;8423511;28;20004;-74
2022/05/21 23:32:31;;;;;;;;;;;13.10;99.90;;;;;;8404119;28;19920;-74
2022/05/21 23:36:33;;;;;;;;;;;13.10;99.90;;;;;;8395229;28;19939;-74
2022/05/21 23:40:35;;;;;;;;;;;13.00;99.90;;;;;;8382978;28;19935;-74
2022/05/21 23:44:37;;;;;;;;;;;13.00;99.90;;;;;;8405911;28;19963;-75
2022/05/21 23:48:44;;;;;;;;;;;13.00;99.90;;;;;;8397073;28;20297;-74
2022/05/21 23:52:46;;;;;;;;;;;13.00;99.90;;;;;;8425664;27;19931;-74
2022/05/21 23:56:48;;;;;;;;;;;12.90;99.90;;;;;;8386631;28;19932;-75
